Time;durP1;ratioP1;P1;durP2;ratioP2;P2;SDS_P1;SDS_P2;PMS_P1;PMS_P2;Temp;Humidity;BMP_temperature;BMP_pressure;BME280_temperature;BME280_humidity;BME280_pressure;Samples;Min_cycle;Max_cycle;Signal;HPM_P1;HPM_P2
2021/06/13 00:01:37;;;;;;;3.73;3.20;;;15.30;99.90;;;;;;5028630;28;20235;-67
2021/06/13 00:04:03;;;;;;;6.60;3.53;;;15.40;99.90;;;;;;5029724;28;20406;-67
2021/06/13 00:06:29;;;;;;;7.67;4.10;;;15.40;99.90;;;;;;5043156;28;20195;-66
2021/06/13 00:08:54;;;;;;;5.40;3.13;;;15.40;99.90;;;;;;5045074;28;20621;-66
2021/06/13 00:11:21;;;;;;;5.17;3.50;;;15.40;99.90;;;;;;5046007;28;20200;-66
2021/06/13 00:13:47;;;;;;;6.50;3.20;;;15.40;99.90;;;;;;5034271;28;20247;-66
2021/06/13 00:16:12;;;;;;;7.93;3.73;;;15.30;99.90;;;;;;5035771;28;21001;-66
2021/06/13 00:18:38;;;;;;;5.83;3.90;;;15.30;99.90;;;;;;5047267;28;20622;-65
2021/06/13 00:21:04;;;;;;;7.90;3.80;;;15.30;99.90;;;;;;5047926;28;20207;-65
2021/06/13 00:23:32;;;;;;;6.13;3.40;;;15.30;99.90;;;;;;5050082;28;22245;-66
2021/06/13 00:25:58;;;;;;;7.43;3.87;;;15.30;99.90;;;;;;5051239;28;20740;-66
2021/06/13 00:28:24;;;;;;;6.93;3.50;;;15.20;99.90;;;;;;5040562;28;20621;-66
2021/06/13 00:30:50;;;;;;;7.30;3.43;;;15.20;99.90;;;;;;5046072;28;20331;-65
2021/06/13 00:33:16;;;;;;;4.90;3.10;;;15.20;99.90;;;;;;5025968;28;20211;-66
2021/06/13 00:35:42;;;;;;;7.40;4.27;;;15.20;99.90;;;;;;5039205;28;20609;-65
2021/06/13 00:38:07;;;;;;;6.67;3.33;;;15.20;99.90;;;;;;5029430;28;20217;-66
2021/06/13 00:40:34;;;;;;;6.13;3.00;;;15.20;99.90;;;;;;5045427;28;20822;-67
2021/06/13 00:43:00;;;;;;;4.37;3.30;;;15.10;99.90;;;;;;5041889;28;20204;-66
2021/06/13 00:45:27;;;;;;;5.70;4.10;;;15.10;99.90;;;;;;5043781;28;20614;-66
2021/06/13 00:47:52;;;;;;;8.30;3.40;;;15.10;99.90;;;;;;5056758;28;20614;-66
2021/06/13 00:50:35;;;;;;;9.10;3.33;;;15.00;99.90;;;;;;5037039;28;20660;-65
2021/06/13 00:53:04;;;;;;;7.23;3.50;;;15.00;99.90;;;;;;5048400;28;20195;-65
2021/06/13 00:55:31;;;;;;;8.70;3.40;;;15.00;99.90;;;;;;5042444;28;20636;-66
2021/06/13 00:57:56;;;;;;;4.23;3.33;;;15.00;99.90;;;;;;5045350;28;20661;-66
2021/06/13 01:00:22;;;;;;;4.60;2.70;;;15.00;99.90;;;;;;5041687;28;20704;-66
2021/06/13 01:02:48;;;;;;;4.80;3.40;;;15.00;99.90;;;;;;5036059;28;20214;-66
2021/06/13 01:05:14;;;;;;;8.60;3.87;;;15.00;99.90;;;;;;5039484;28;20288;-65
2021/06/13 01:08:07;;;;;;;6.50;3.40;;;15.00;99.90;;;;;;5039623;28;21420;-66
2021/06/13 01:10:34;;;;;;;6.87;3.53;;;15.00;99.90;;;;;;5039296;28;20464;-66
2021/06/13 01:13:17;;;;;;;4.90;3.10;;;15.00;99.90;;;;;;5017661;28;20713;-66
2021/06/13 01:15:52;;;;;;;6.83;3.40;;;15.00;99.90;;;;;;5036080;28;20610;-65
2021/06/13 01:18:47;;;;;;;6.70;3.10;;;14.90;99.90;;;;;;5022201;28;20716;-66
2021/06/13 01:21:31;;;;;;;5.10;3.20;;;15.00;99.90;;;;;;5015003;28;20696;-66
2021/06/13 01:24:25;;;;;;;5.43;3.20;;;14.90;99.90;;;;;;5035196;28;21181;-66
2021/06/13 01:27:03;;;;;;;4.60;3.20;;;14.90;99.90;;;;;;5038263;28;20714;-66
2021/06/13 01:29:55;;;;;;;8.47;3.80;;;15.00;99.90;;;;;;5035158;28;20621;-65
2021/06/13 01:32:30;;;;;;;5.80;3.50;;;14.90;99.90;;;;;;5037853;28;21747;-66
2021/06/13 01:35:02;;;;;;;6.30;3.40;;;14.90;99.90;;;;;;5035234;28;20626;-65
2021/06/13 01:37:32;;;;;;;5.43;3.00;;;14.90;99.90;;;;;;5035294;28;21059;-66
2021/06/13 01:40:02;;;;;;;7.83;3.40;;;15.00;99.90;;;;;;5034369;28;20657;-66
2021/06/13 01:42:28;;;;;;;4.80;2.83;;;15.00;99.90;;;;;;5042294;28;21270;-65
2021/06/13 01:44:57;;;;;;;4.57;2.73;;;14.90;99.90;;;;;;5041387;28;21122;-66
2021/06/13 01:47:26;;;;;;;4.53;2.90;;;14.90;99.90;;;;;;5030049;28;20614;-66
2021/06/13 01:49:54;;;;;;;6.20;3.00;;;14.90;99.90;;;;;;5048340;28;20745;-66
2021/06/13 01:52:20;;;;;;;6.03;2.73;;;14.90;99.90;;;;;;5041131;28;20642;-67
2021/06/13 01:54:48;;;;;;;7.20;3.73;;;14.90;99.90;;;;;;5044970;28;20634;-65
2021/06/13 01:57:15;;;;;;;5.33;2.70;;;14.80;99.90;;;;;;5044531;28;20622;-65
2021/06/13 01:59:42;;;;;;;10.80;3.17;;;14.80;99.90;;;;;;5039928;28;20678;-65
2021/06/13 02:02:12;;;;;;;5.43;3.20;;;14.80;99.90;;;;;;5041325;28;20667;-66
2021/06/13 02:04:39;;;;;;;5.60;2.83;;;14.80;99.90;;;;;;5033209;28;20721;-65
2021/06/13 02:07:06;;;;;;;5.70;2.93;;;14.80;99.90;;;;;;5041826;28;20610;-65
2021/06/13 02:09:33;;;;;;;5.73;3.13;;;14.80;99.90;;;;;;5025344;28;20618;-65
2021/06/13 02:12:02;;;;;;;4.57;3.23;;;14.70;99.90;;;;;;5037647;28;20634;-65
2021/06/13 02:14:30;;;;;;;3.73;2.80;;;14.70;99.90;;;;;;5018333;28;20649;-65
2021/06/13 02:16:58;;;;;;;5.33;3.40;;;14.60;99.90;;;;;;5034527;28;20721;-66
2021/06/13 02:19:27;;;;;;;8.63;3.83;;;14.70;99.90;;;;;;5016320;28;20634;-65
2021/06/13 02:21:56;;;;;;;6.77;3.43;;;14.70;99.90;;;;;;5050224;28;20653;-65
2021/06/13 02:24:33;;;;;;;4.50;2.90;;;14.70;99.90;;;;;;5028917;28;20681;-65
2021/06/13 02:27:00;;;;;;;6.70;3.70;;;14.70;99.90;;;;;;5041555;28;20605;-65
2021/06/13 02:29:27;;;;;;;8.00;3.30;;;14.70;99.90;;;;;;5045905;28;20618;-66
2021/06/13 02:31:55;;;;;;;7.53;3.27;;;14.60;99.90;;;;;;5044691;28;21443;-65
2021/06/13 02:34:24;;;;;;;6.93;3.03;;;14.70;99.90;;;;;;5050702;28;20814;-65
2021/06/13 02:36:51;;;;;;;7.70;3.30;;;14.70;99.90;;;;;;5045482;28;20742;-66
2021/06/13 02:39:18;;;;;;;4.93;2.70;;;14.70;99.90;;;;;;5042171;28;20641;-66
2021/06/13 02:41:44;;;;;;;4.30;2.90;;;14.70;99.90;;;;;;5042351;28;20630;-65
2021/06/13 02:44:10;;;;;;;7.80;2.90;;;14.70;99.90;;;;;;5042200;28;20760;-65
2021/06/13 02:46:38;;;;;;;6.23;3.30;;;14.70;99.90;;;;;;5034804;28;20278;-65
2021/06/13 02:49:09;;;;;;;5.37;2.77;;;14.70;99.90;;;;;;5033619;28;20562;-65
2021/06/13 02:52:14;;;;;;;7.27;3.40;;;14.70;99.90;;;;;;5046419;28;20657;-66
2021/06/13 02:54:45;;;;;;;5.53;3.20;;;14.70;99.90;;;;;;5052440;28;20847;-66
2021/06/13 02:57:17;;;;;;;4.53;2.97;;;14.70;99.90;;;;;;5052420;28;20628;-66
2021/06/13 02:59:50;;;;;;;4.77;2.93;;;14.70;99.90;;;;;;5044085;28;20807;-65
2021/06/13 03:02:23;;;;;;;7.50;3.40;;;14.80;99.90;;;;;;5030565;28;22766;-66
2021/06/13 03:04:50;;;;;;;7.77;3.43;;;14.80;99.90;;;;;;5039215;28;20629;-65
2021/06/13 03:07:20;;;;;;;6.90;2.70;;;14.80;99.90;;;;;;5035841;28;20637;-65
2021/06/13 03:09:47;;;;;;;7.13;3.07;;;14.80;99.90;;;;;;5040102;28;20637;-65
2021/06/13 03:12:14;;;;;;;5.90;2.90;;;14.90;99.90;;;;;;5042097;28;20637;-65
2021/06/13 03:14:41;;;;;;;4.33;2.73;;;14.90;99.90;;;;;;5037164;28;20762;-65
2021/06/13 03:17:08;;;;;;;5.00;3.00;;;14.90;99.90;;;;;;5039013;28;20622;-65
2021/06/13 03:19:34;;;;;;;5.10;3.20;;;15.00;99.90;;;;;;5042333;28;20828;-66
2021/06/13 03:22:03;;;;;;;5.80;3.10;;;14.90;99.90;;;;;;5049877;28;20617;-65
2021/06/13 03:24:30;;;;;;;3.20;2.77;;;14.90;99.90;;;;;;5048739;28;20649;-65
2021/06/13 03:26:56;;;;;;;4.37;3.07;;;14.90;99.90;;;;;;5046444;28;20843;-65
2021/06/13 03:29:23;;;;;;;4.47;3.10;;;14.90;99.90;;;;;;5045232;28;20656;-65
2021/06/13 03:31:51;;;;;;;7.00;3.37;;;14.90;99.90;;;;;;5048410;28;20947;-67
2021/06/13 03:34:17;;;;;;;6.60;3.30;;;14.90;99.90;;;;;;5050592;28;20977;-65
2021/06/13 03:36:43;;;;;;;7.47;3.60;;;14.90;99.90;;;;;;5041119;28;21240;-65
2021/06/13 03:39:11;;;;;;;5.10;2.90;;;14.90;99.90;;;;;;5043882;28;20726;-67
2021/06/13 03:41:38;;;;;;;5.23;3.27;;;14.90;99.90;;;;;;5047060;28;20699;-65
2021/06/13 03:44:04;;;;;;;6.13;3.20;;;14.90;99.90;;;;;;5043804;28;20679;-65
2021/06/13 03:46:29;;;;;;;6.47;3.13;;;14.90;99.90;;;;;;5044422;28;20625;-65
2021/06/13 03:48:56;;;;;;;6.83;3.00;;;14.90;99.90;;;;;;5034835;28;20637;-65
2021/06/13 03:51:26;;;;;;;8.70;3.57;;;15.00;99.90;;;;;;5035431;28;20292;-65
2021/06/13 03:53:55;;;;;;;6.97;3.27;;;15.00;99.90;;;;;;5032659;28;21134;-65
2021/06/13 03:56:39;;;;;;;7.80;3.27;;;15.00;99.90;;;;;;5052850;28;20977;-65
2021/06/13 03:59:05;;;;;;;8.40;3.20;;;15.00;99.90;;;;;;5048750;28;20589;-65
2021/06/13 04:01:32;;;;;;;5.83;3.03;;;15.00;99.90;;;;;;5054668;28;20649;-65
2021/06/13 04:03:59;;;;;;;7.37;3.20;;;15.00;99.90;;;;;;5052977;28;21041;-65
2021/06/13 04:06:25;;;;;;;9.40;3.03;;;15.00;99.90;;;;;;5044924;28;20660;-65
2021/06/13 04:08:52;;;;;;;5.70;3.03;;;15.00;99.90;;;;;;5047219;28;20716;-65
2021/06/13 04:11:20;;;;;;;6.70;3.33;;;15.00;99.90;;;;;;5044920;28;20668;-65
2021/06/13 04:13:49;;;;;;;6.87;3.00;;;15.10;99.90;;;;;;5029957;28;20942;-65
2021/06/13 04:16:18;;;;;;;4.83;3.00;;;15.10;99.90;;;;;;5047480;28;20714;-65
2021/06/13 04:18:44;;;;;;;6.07;2.93;;;15.10;99.90;;;;;;5049362;28;20691;-65
2021/06/13 04:21:12;;;;;;;8.00;3.80;;;15.10;99.90;;;;;;5040953;28;20684;-66
2021/06/13 04:23:43;;;;;;;8.07;3.67;;;15.10;99.90;;;;;;5041401;28;20657;-66
2021/06/13 04:26:13;;;;;;;6.77;3.50;;;15.10;99.90;;;;;;5047467;28;24511;-66
2021/06/13 04:28:39;;;;;;;6.20;2.90;;;15.10;99.90;;;;;;5047688;28;20623;-68
2021/06/13 04:31:07;;;;;;;7.53;3.00;;;15.10;99.90;;;;;;5050016;28;20753;-66
2021/06/13 04:33:33;;;;;;;7.07;3.07;;;15.10;99.90;;;;;;5040073;28;20638;-65
2021/06/13 04:36:00;;;;;;;4.40;3.03;;;15.20;99.90;;;;;;5047943;28;20672;-65
2021/06/13 04:38:26;;;;;;;7.50;3.00;;;15.20;99.90;;;;;;5041020;28;20654;-67
2021/06/13 04:40:52;;;;;;;7.27;3.37;;;15.30;99.90;;;;;;5044561;28;21229;-66
2021/06/13 04:43:19;;;;;;;6.60;3.30;;;15.20;99.90;;;;;;5050647;28;20670;-66
2021/06/13 04:45:44;;;;;;;16.30;4.00;;;15.30;99.90;;;;;;5045827;28;20200;-66
2021/06/13 04:48:10;;;;;;;5.00;2.70;;;15.30;99.90;;;;;;5032131;28;20633;-66
2021/06/13 04:50:45;;;;;;;6.90;3.67;;;15.30;99.90;;;;;;5042647;28;20208;-66
2021/06/13 04:53:51;;;;;;;8.87;4.17;;;15.40;99.90;;;;;;5039719;28;20227;-66
2021/06/13 04:56:20;;;;;;;7.40;3.57;;;15.30;99.90;;;;;;5044779;28;20642;-66
2021/06/13 04:58:45;;;;;;;7.67;3.70;;;15.30;99.90;;;;;;5048163;28;20701;-66
2021/06/13 05:01:11;;;;;;;7.43;3.70;;;15.30;99.90;;;;;;5043652;28;21075;-66
2021/06/13 05:03:36;;;;;;;6.83;3.80;;;15.30;99.90;;;;;;5056600;28;20274;-66
2021/06/13 05:06:02;;;;;;;9.33;3.70;;;15.40;99.90;;;;;;5046042;28;20184;-66
2021/06/13 05:08:29;;;;;;;8.67;3.87;;;15.40;99.90;;;;;;5054075;28;20243;-66
2021/06/13 05:10:54;;;;;;;5.47;3.80;;;15.40;99.90;;;;;;5045704;28;20713;-66
2021/06/13 05:13:20;;;;;;;7.10;3.70;;;15.50;99.90;;;;;;5042673;28;21415;-66
2021/06/13 05:15:46;;;;;;;4.43;3.37;;;15.50;99.90;;;;;;5039014;28;20618;-71
2021/06/13 05:18:12;;;;;;;8.93;4.47;;;15.50;99.90;;;;;;5045068;28;20188;-66
2021/06/13 05:20:38;;;;;;;8.70;4.00;;;15.60;99.90;;;;;;5045512;28;20667;-66
2021/06/13 05:23:05;;;;;;;7.30;3.80;;;15.60;99.90;;;;;;5052716;27;20246;-67
2021/06/13 05:25:34;;;;;;;7.97;4.00;;;15.60;99.90;;;;;;5050577;28;20627;-66
2021/06/13 05:28:00;;;;;;;7.50;4.23;;;15.60;99.90;;;;;;5043314;28;20622;-66
2021/06/13 05:30:29;;;;;;;6.90;3.80;;;15.60;99.90;;;;;;5047145;28;20653;-67
2021/06/13 05:32:55;;;;;;;10.53;4.30;;;15.60;99.90;;;;;;5048151;28;20617;-66
2021/06/13 05:35:22;;;;;;;6.73;3.67;;;15.70;99.90;;;;;;5046321;28;20732;-66
2021/06/13 05:37:47;;;;;;;6.53;3.50;;;15.80;99.90;;;;;;5045882;28;20681;-66
2021/06/13 05:40:14;;;;;;;6.80;3.57;;;15.70;99.90;;;;;;5035046;28;21239;-66
2021/06/13 05:42:39;;;;;;;5.97;4.10;;;15.80;99.90;;;;;;5060560;28;20273;-66
2021/06/13 05:45:07;;;;;;;6.37;3.83;;;15.70;99.90;;;;;;5039923;28;20619;-65
2021/06/13 05:47:33;;;;;;;6.30;3.83;;;15.70;99.90;;;;;;5038902;28;20724;-66
2021/06/13 05:49:59;;;;;;;10.23;4.23;;;15.60;99.90;;;;;;5040194;28;20665;-66
2021/06/13 05:52:24;;;;;;;8.93;4.03;;;15.70;99.90;;;;;;5049394;28;20568;-66
2021/06/13 05:54:51;;;;;;;7.93;3.87;;;15.70;99.90;;;;;;5041668;28;21160;-66
2021/06/13 05:57:17;;;;;;;5.93;4.07;;;15.80;99.90;;;;;;5040122;28;20188;-66
2021/06/13 05:59:43;;;;;;;7.27;4.33;;;15.80;99.90;;;;;;5054408;28;20660;-66
2021/06/13 06:02:08;;;;;;;8.93;4.20;;;15.80;99.90;;;;;;5045130;28;20642;-66
2021/06/13 06:04:34;;;;;;;8.07;3.93;;;15.80;99.90;;;;;;5018335;28;20235;-65
2021/06/13 06:07:00;;;;;;;7.13;3.90;;;15.80;99.90;;;;;;5035943;28;20277;-66
2021/06/13 06:09:25;;;;;;;7.03;4.10;;;15.70;99.90;;;;;;5031486;28;20184;-65
2021/06/13 06:11:51;;;;;;;8.30;4.40;;;15.80;99.90;;;;;;5058523;28;20218;-66
2021/06/13 06:14:16;;;;;;;9.80;4.50;;;15.80;99.90;;;;;;5040801;28;20234;-67
2021/06/13 06:16:42;;;;;;;8.20;4.30;;;15.80;99.90;;;;;;5038938;28;20199;-67
2021/06/13 06:19:10;;;;;;;8.33;4.60;;;15.90;99.90;;;;;;5047275;28;20281;-67
2021/06/13 06:21:36;;;;;;;5.87;3.43;;;16.00;99.90;;;;;;5047777;28;20222;-67
2021/06/13 06:24:02;;;;;;;8.60;4.10;;;16.10;99.90;;;;;;5050134;28;20653;-66
2021/06/13 06:26:27;;;;;;;6.40;3.70;;;16.00;99.90;;;;;;5043217;28;20323;-66
2021/06/13 06:28:53;;;;;;;6.60;3.87;;;16.00;99.90;;;;;;5042858;28;20273;-66
2021/06/13 06:31:18;;;;;;;10.17;4.20;;;16.10;99.90;;;;;;5044305;28;20265;-66
2021/06/13 06:33:44;;;;;;;8.40;3.87;;;16.10;99.90;;;;;;5042097;28;20247;-67
2021/06/13 06:36:10;;;;;;;7.13;3.60;;;16.20;99.90;;;;;;5041157;28;20196;-67
2021/06/13 06:38:35;;;;;;;7.40;3.60;;;16.30;99.90;;;;;;5040718;28;20184;-67
2021/06/13 06:41:01;;;;;;;6.83;4.10;;;16.30;99.90;;;;;;5043847;28;20208;-65
2021/06/13 06:43:27;;;;;;;7.60;3.67;;;16.40;99.90;;;;;;5050522;28;20235;-66
2021/06/13 06:45:53;;;;;;;7.43;3.83;;;16.50;99.90;;;;;;5044241;28;20913;-65
2021/06/13 06:48:19;;;;;;;5.00;3.70;;;16.50;99.90;;;;;;5044857;28;20191;-66
2021/06/13 06:50:45;;;;;;;6.40;3.77;;;16.70;99.90;;;;;;5041806;28;20661;-66
2021/06/13 06:53:11;;;;;;;7.60;3.83;;;16.80;99.90;;;;;;5044592;28;21504;-67
2021/06/13 06:55:36;;;;;;;6.60;3.60;;;16.90;99.90;;;;;;5039863;28;20684;-66
2021/06/13 06:58:03;;;;;;;7.53;3.17;;;16.90;99.90;;;;;;5047060;28;20933;-67
2021/06/13 07:00:28;;;;;;;4.70;3.17;;;16.80;99.90;;;;;;5051788;28;20223;-67
2021/06/13 07:02:54;;;;;;;5.37;3.70;;;16.80;99.90;;;;;;5054464;28;20642;-67
2021/06/13 07:05:20;;;;;;;9.17;4.00;;;16.80;99.90;;;;;;5043808;28;20618;-65
2021/06/13 07:07:45;;;;;;;6.87;3.63;;;16.80;99.90;;;;;;5047472;28;20341;-67
2021/06/13 07:10:13;;;;;;;6.10;3.97;;;16.70;99.90;;;;;;5064860;28;20203;-66
2021/06/13 07:12:39;;;;;;;7.77;3.87;;;16.80;99.90;;;;;;5052276;28;20195;-65
2021/06/13 07:15:07;;;;;;;7.30;3.60;;;16.70;99.90;;;;;;5065145;28;20672;-66
2021/06/13 07:17:33;;;;;;;5.70;3.63;;;16.70;99.90;;;;;;5054221;28;20629;-65
2021/06/13 07:19:59;;;;;;;5.13;3.03;;;16.70;99.90;;;;;;5043103;28;20633;-66
2021/06/13 07:22:24;;;;;;;8.30;3.40;;;16.70;99.90;;;;;;5044596;28;20680;-66
2021/06/13 07:24:53;;;;;;;8.17;4.00;;;16.70;99.90;;;;;;5032873;28;20555;-66
2021/06/13 07:27:20;;;;;;;6.70;3.90;;;16.80;99.90;;;;;;5045594;28;20190;-66
2021/06/13 07:29:46;;;;;;;7.63;3.77;;;16.80;99.90;;;;;;5042400;28;20706;-66
2021/06/13 07:32:11;;;;;;;9.20;4.00;;;16.80;99.90;;;;;;5038680;28;20615;-66
2021/06/13 07:34:37;;;;;;;7.50;3.60;;;16.70;99.90;;;;;;5051177;28;20230;-67
2021/06/13 07:37:04;;;;;;;7.23;3.93;;;16.70;99.90;;;;;;5053322;28;20194;-67
2021/06/13 07:39:33;;;;;;;8.70;3.47;;;16.70;99.90;;;;;;5132222;22;20236;-67
2021/06/13 07:41:59;;;;;;;7.73;3.90;;;16.70;99.90;;;;;;4988694;28;20632;-68
2021/06/13 07:44:26;;;;;;;7.57;4.90;;;16.80;99.90;;;;;;5009257;28;21014;-68
2021/06/13 07:46:53;;;;;;;7.33;4.07;;;16.80;99.90;;;;;;4992793;28;20648;-68
2021/06/13 07:49:19;;;;;;;5.90;3.60;;;16.80;99.90;;;;;;5002841;28;21655;-68
2021/06/13 07:51:44;;;;;;;5.50;3.47;;;16.90;99.90;;;;;;5015489;28;20632;-68
2021/06/13 07:54:10;;;;;;;6.93;4.47;;;16.90;99.90;;;;;;5002947;28;20666;-67
2021/06/13 07:56:35;;;;;;;6.73;3.40;;;16.90;99.90;;;;;;5002431;28;20205;-68
2021/06/13 07:59:03;;;;;;;6.80;3.80;;;17.00;99.90;;;;;;5005940;28;20649;-68
2021/06/13 08:01:29;;;;;;;8.57;4.00;;;17.10;99.90;;;;;;5005746;28;20289;-68
2021/06/13 08:03:55;;;;;;;5.93;3.90;;;17.10;99.90;;;;;;5005394;28;20686;-68
2021/06/13 08:06:20;;;;;;;5.90;3.93;;;17.10;99.90;;;;;;4995991;28;20621;-67
2021/06/13 08:08:46;;;;;;;5.40;3.67;;;17.20;99.90;;;;;;4986079;28;21329;-66
2021/06/13 08:11:12;;;;;;;9.17;3.93;;;17.20;99.90;;;;;;4973514;28;20216;-66
2021/06/13 08:13:38;;;;;;;5.67;3.70;;;17.30;99.90;;;;;;4999698;28;20595;-68
2021/06/13 08:16:05;;;;;;;8.93;3.93;;;17.40;99.90;;;;;;5006711;28;20626;-67
2021/06/13 08:18:31;;;;;;;5.70;3.63;;;17.40;99.90;;;;;;5007115;28;20369;-67
2021/06/13 08:20:56;;;;;;;8.00;3.63;;;17.50;99.90;;;;;;5006085;28;21256;-68
2021/06/13 08:23:22;;;;;;;8.83;3.60;;;17.60;99.90;;;;;;5007786;28;20255;-70
2021/06/13 08:25:50;;;;;;;7.60;4.00;;;17.50;99.90;;;;;;4983197;28;20193;-69
2021/06/13 08:28:16;;;;;;;8.33;3.90;;;17.60;99.90;;;;;;5000989;28;20563;-68
2021/06/13 08:30:42;;;;;;;6.73;3.83;;;17.70;99.90;;;;;;5010914;28;21162;-68
2021/06/13 08:33:08;;;;;;;6.50;3.97;;;17.80;99.90;;;;;;5007671;28;22101;-68
2021/06/13 08:35:34;;;;;;;7.30;4.50;;;17.80;99.90;;;;;;5019299;28;20729;-68
2021/06/13 08:38:02;;;;;;;6.13;4.10;;;17.90;99.90;;;;;;4995672;28;20193;-70
2021/06/13 08:40:29;;;;;;;5.93;3.43;;;18.00;99.90;;;;;;5022520;28;20665;-70
2021/06/13 08:42:55;;;;;;;5.90;3.47;;;18.10;99.90;;;;;;5010392;28;20647;-66
2021/06/13 08:45:22;;;;;;;9.20;4.50;;;18.20;99.90;;;;;;5014478;28;20642;-66
2021/06/13 08:47:51;;;;;;;6.50;4.03;;;18.20;99.90;;;;;;5015397;28;20602;-66
2021/06/13 08:50:18;;;;;;;7.83;4.20;;;18.30;99.90;;;;;;4992908;28;20662;-66
2021/06/13 08:52:46;;;;;;;7.70;4.37;;;18.50;99.90;;;;;;5010278;28;22683;-65
2021/06/13 08:55:13;;;;;;;7.00;4.00;;;18.40;99.90;;;;;;5013749;28;22635;-66
2021/06/13 08:57:39;;;;;;;6.33;3.90;;;18.30;99.90;;;;;;5010157;28;20637;-66
2021/06/13 09:00:08;;;;;;;8.23;4.40;;;18.30;99.90;;;;;;5006793;28;20719;-66
2021/06/13 09:02:34;;;;;;;5.03;4.33;;;18.20;99.90;;;;;;5003162;28;20195;-66
2021/06/13 09:04:59;;;;;;;10.37;5.07;;;18.20;99.90;;;;;;5003059;28;20640;-66
2021/06/13 09:07:25;;;;;;;5.30;4.10;;;18.10;99.90;;;;;;5005139;28;20193;-66
2021/06/13 09:09:55;;;;;;;9.20;4.70;;;18.00;99.90;;;;;;5004032;28;20211;-66
2021/06/13 09:12:21;;;;;;;6.40;4.50;;;18.10;99.90;;;;;;5006842;28;20654;-67
2021/06/13 09:14:53;;;;;;;9.80;5.47;;;18.20;99.90;;;;;;4997096;28;20734;-67
2021/06/13 09:17:25;;;;;;;9.90;4.90;;;18.10;99.90;;;;;;4997586;28;20703;-67
2021/06/13 09:20:15;;;;;;;6.57;4.50;;;18.10;99.90;;;;;;5015307;28;20643;-66
2021/06/13 09:22:41;;;;;;;10.20;5.03;;;18.10;99.90;;;;;;5016636;28;20658;-67
2021/06/13 09:25:13;;;;;;;9.03;5.17;;;18.20;99.90;;;;;;4998279;28;20635;-66
2021/06/13 09:27:40;;;;;;;12.77;4.70;;;18.20;99.90;;;;;;4993636;28;21313;-69
2021/06/13 09:30:08;;;;;;;7.73;5.27;;;18.30;99.90;;;;;;5010139;28;20654;-68
2021/06/13 09:33:03;;;;;;;9.13;4.90;;;18.40;99.90;;;;;;5009148;28;20629;-68
2021/06/13 09:35:30;;;;;;;5.80;4.50;;;18.60;99.90;;;;;;5011428;28;20733;-68
2021/06/13 09:38:14;;;;;;;8.20;5.10;;;18.60;99.90;;;;;;5004798;28;20812;-67
2021/06/13 09:40:42;;;;;;;9.00;5.20;;;18.60;99.90;;;;;;5005454;28;20673;-68
2021/06/13 09:43:28;;;;;;;7.50;4.50;;;18.70;99.90;;;;;;5006697;28;20654;-68
2021/06/13 09:45:57;;;;;;;9.43;5.20;;;18.70;99.90;;;;;;5016758;28;21653;-68
2021/06/13 09:48:23;;;;;;;11.70;5.43;;;18.70;99.90;;;;;;5004440;28;20709;-68
2021/06/13 09:51:05;;;;;;;6.90;4.33;;;18.90;99.90;;;;;;4991060;28;21776;-68
2021/06/13 09:53:36;;;;;;;7.33;4.93;;;19.00;99.90;;;;;;5014278;28;21257;-68
2021/06/13 09:56:04;;;;;;;6.43;4.90;;;19.00;99.90;;;;;;4989146;28;20672;-68
2021/06/13 09:58:34;;;;;;;7.90;4.73;;;18.90;99.90;;;;;;5014468;28;20647;-68
2021/06/13 10:01:10;;;;;;;8.63;5.40;;;18.90;99.90;;;;;;4989791;28;20651;-68
2021/06/13 10:03:39;;;;;;;6.07;4.33;;;19.00;99.90;;;;;;5012204;28;20719;-68
2021/06/13 10:06:07;;;;;;;7.83;4.80;;;19.00;99.90;;;;;;5014320;28;20630;-68
2021/06/13 10:08:33;;;;;;;8.63;5.50;;;19.00;99.90;;;;;;5012274;28;21284;-68
2021/06/13 10:10:59;;;;;;;6.80;4.07;;;19.00;99.90;;;;;;5013763;28;20651;-67
2021/06/13 10:13:55;;;;;;;6.60;5.03;;;19.20;99.90;;;;;;5021700;28;20920;-68
2021/06/13 10:16:26;;;;;;;6.80;5.07;;;19.20;99.90;;;;;;5015381;28;20632;-68
2021/06/13 10:19:16;;;;;;;10.37;5.57;;;19.20;99.90;;;;;;5019012;28;20658;-68
2021/06/13 10:21:46;;;;;;;6.80;4.90;;;19.20;99.90;;;;;;5005077;28;21231;-68
2021/06/13 10:24:34;;;;;;;7.20;4.67;;;19.20;99.90;;;;;;5006707;28;20704;-67
2021/06/13 10:27:08;;;;;;;6.80;4.90;;;19.10;99.90;;;;;;5004445;28;20710;-67
2021/06/13 10:29:38;;;;;;;8.50;5.50;;;19.30;99.90;;;;;;5013882;28;20785;-67
2021/06/13 10:32:06;;;;;;;6.40;4.83;;;19.40;99.90;;;;;;5020685;28;21088;-68
2021/06/13 10:34:32;;;;;;;7.50;5.67;;;19.50;99.90;;;;;;5007870;28;20733;-68
2021/06/13 10:37:02;;;;;;;6.70;5.17;;;19.60;99.90;;;;;;5011914;28;20658;-68
2021/06/13 10:39:30;;;;;;;6.43;4.63;;;19.70;99.90;;;;;;4989238;28;20642;-68
2021/06/13 10:41:57;;;;;;;6.10;4.70;;;19.70;99.90;;;;;;4997923;28;21332;-67
2021/06/13 10:44:24;;;;;;;6.57;4.83;;;19.60;99.90;;;;;;5015035;28;21079;-68
2021/06/13 10:46:54;;;;;;;8.30;4.90;;;19.60;99.90;;;;;;5015107;28;20640;-68
2021/06/13 10:49:32;;;;;;;9.27;4.83;;;19.60;99.90;;;;;;5014721;28;20634;-67
2021/06/13 10:52:17;;;;;;;7.53;4.90;;;19.60;99.90;;;;;;5011612;28;20630;-68
2021/06/13 10:54:49;;;;;;;9.37;5.70;;;19.60;99.90;;;;;;5015453;28;20643;-68
2021/06/13 10:57:15;;;;;;;7.90;5.40;;;19.70;99.90;;;;;;5006223;28;20843;-68
2021/06/13 10:59:45;;;;;;;7.60;4.97;;;19.80;99.90;;;;;;5009539;28;20717;-68
2021/06/13 11:02:19;;;;;;;10.47;4.80;;;19.70;99.90;;;;;;5004456;28;20349;-68
2021/06/13 11:04:58;;;;;;;5.77;4.60;;;19.70;99.90;;;;;;4989138;28;20678;-68
2021/06/13 11:07:30;;;;;;;8.00;5.20;;;19.70;99.90;;;;;;5009432;28;20615;-68
2021/06/13 11:12:47;;;;;;;7.67;4.93;;;19.80;99.90;;;;;;5005531;28;20933;-68
2021/06/13 11:15:22;;;;;;;9.57;5.40;;;19.80;99.90;;;;;;5011727;28;20732;-69
2021/06/13 11:17:56;;;;;;;7.93;4.47;;;20.00;99.90;;;;;;5008385;28;20629;-68
2021/06/13 11:20:29;;;;;;;6.80;5.27;;;19.90;99.90;;;;;;5012585;28;20723;-68
2021/06/13 11:22:58;;;;;;;8.20;5.03;;;20.00;99.90;;;;;;4998000;28;20666;-68
2021/06/13 11:25:29;;;;;;;8.27;4.90;;;19.90;99.90;;;;;;5013744;28;23307;-68
2021/06/13 11:28:15;;;;;;;5.73;4.90;;;20.10;99.90;;;;;;4999880;28;20734;-68
2021/06/13 11:30:49;;;;;;;6.80;5.67;;;20.20;99.90;;;;;;5010869;28;22128;-69
2021/06/13 11:33:44;;;;;;;7.27;4.40;;;20.20;99.90;;;;;;5015705;28;20793;-68
2021/06/13 11:36:21;;;;;;;6.20;4.63;;;20.20;99.90;;;;;;5024679;28;20596;-65
2021/06/13 11:38:50;;;;;;;10.10;5.20;;;20.30;99.90;;;;;;5022454;28;20962;-65
2021/06/13 11:41:47;;;;;;;6.43;4.57;;;20.40;99.90;;;;;;5015030;28;20667;-65
2021/06/13 11:44:34;;;;;;;6.70;4.97;;;20.50;99.90;;;;;;5020746;28;20689;-65
2021/06/13 11:47:17;;;;;;;5.97;4.80;;;20.70;99.90;;;;;;4997971;28;20808;-65
2021/06/13 11:49:45;;;;;;;6.20;4.70;;;20.70;99.90;;;;;;5019416;28;20785;-65
2021/06/13 11:52:10;;;;;;;9.27;7.03;;;20.80;99.90;;;;;;5014686;28;20634;-65
2021/06/13 11:54:41;;;;;;;8.70;7.80;;;20.80;99.90;;;;;;5007886;28;20651;-64
2021/06/13 11:57:31;;;;;;;6.50;4.40;;;20.90;99.90;;;;;;5024431;28;20589;-67
2021/06/13 12:00:13;;;;;;;7.27;4.50;;;21.00;99.90;;;;;;4996571;28;21084;-67
2021/06/13 12:02:40;;;;;;;6.63;4.17;;;21.00;99.90;;;;;;4992998;28;20646;-67
2021/06/13 12:05:06;;;;;;;6.10;4.50;;;21.00;99.90;;;;;;4998499;28;20649;-67
2021/06/13 12:07:40;;;;;;;5.70;3.90;;;21.10;99.90;;;;;;4994196;28;20619;-68
2021/06/13 12:10:24;;;;;;;6.33;3.97;;;21.20;99.90;;;;;;5005693;28;20639;-65
2021/06/13 12:13:04;;;;;;;5.70;3.70;;;21.30;99.90;;;;;;5015104;28;20631;-66
2021/06/13 12:15:30;;;;;;;6.57;4.23;;;21.40;99.90;;;;;;5005783;28;20615;-67
2021/06/13 12:17:58;;;;;;;5.47;4.30;;;21.40;99.90;;;;;;4994367;28;20635;-70
2021/06/13 12:20:23;;;;;;;6.40;4.23;;;21.40;99.90;;;;;;5017185;28;20294;-66
2021/06/13 12:28:06;;;;;;;4.70;3.90;;;21.50;99.90;;;;;;5020730;28;20630;-64
2021/06/13 12:30:33;;;;;;;6.80;6.20;;;21.50;99.90;;;;;;4999606;28;20652;-65
2021/06/13 12:33:13;;;;;;;7.87;4.70;;;21.70;99.90;;;;;;5003058;28;21178;-64
2021/06/13 12:35:43;;;;;;;6.40;3.87;;;21.70;99.90;;;;;;5000431;28;20731;-66
2021/06/13 12:38:11;;;;;;;5.33;3.60;;;21.80;99.90;;;;;;4998943;28;21852;-65
2021/06/13 12:40:41;;;;;;;4.57;3.83;;;21.70;99.90;;;;;;5003986;28;20666;-65
2021/06/13 12:43:09;;;;;;;6.40;4.23;;;21.80;99.90;;;;;;5008628;28;20662;-64
2021/06/13 12:45:36;;;;;;;5.43;4.23;;;21.90;99.90;;;;;;5008877;28;20623;-66
2021/06/13 12:48:04;;;;;;;7.47;4.10;;;21.90;99.90;;;;;;5003494;28;20635;-65
2021/06/13 12:50:38;;;;;;;9.90;4.60;;;22.00;99.90;;;;;;5018546;28;20656;-65
2021/06/13 12:53:06;;;;;;;6.77;3.83;;;22.00;99.90;;;;;;5013992;28;20653;-65
2021/06/13 12:55:38;;;;;;;6.07;4.00;;;22.00;99.90;;;;;;5016064;28;21093;-66
2021/06/13 12:58:08;;;;;;;5.73;4.80;;;22.10;99.90;;;;;;5000426;28;21214;-65
2021/06/13 13:00:34;;;;;;;6.90;4.00;;;22.20;99.90;;;;;;4990966;28;20673;-66
2021/06/13 13:03:13;;;;;;;4.80;3.77;;;22.20;99.90;;;;;;4989139;28;21028;-66
2021/06/13 13:05:41;;;;;;;6.10;4.03;;;22.20;99.90;;;;;;5004059;28;21141;-65